Bloomer, Wisconsin
Current Conditions -  °F | °C
As of 8:15 PM on Saturday 25 Oct 2014 (Local Time) from KY23 Reporting Station
Clear Clear  
Wind Chill: 52°   Ceiling: Unl
Heat Index: 52°   Visibility: 10mi
Dew Point: 24°   Wind: 6mph
Humidity: 34%   Direction: 280°W
Pressure: 30"   Gusts: NA
Location:  45.1°N, 91.49°W
Report Text: KY23 260115Z AUTO 28005KT 10SM CLR 11/M04 A3000 RMK AO2 T01121044
Loading
Personal Weather Stations






























Interactive Weather Map New forecast layout! Learn more

10-Day Weather Forecast

Advertisements
Track Severe Weather on mobile